createdAt,value
2022-11-04T00:01:08.072Z,84.97
2022-11-04T00:03:31.701Z,83.92
2022-11-04T00:05:55.196Z,82.19
2022-11-04T00:08:26.361Z,83.47
2022-11-04T00:11:03.759Z,83.26
2022-11-04T00:13:30.135Z,83.47
2022-11-04T00:16:13.449Z,82.97
2022-11-04T00:18:37.701Z,83.43
2022-11-04T00:21:18.675Z,84.88
2022-11-04T00:24:01.157Z,84.08
2022-11-04T00:26:41.930Z,84.73
2022-11-04T00:29:05.598Z,85.73
2022-11-04T00:31:46.358Z,86.73
2022-11-04T00:34:10.058Z,85.57
2022-11-04T00:36:33.594Z,86.07
2022-11-04T00:38:59.184Z,85.94
2022-11-04T00:41:30.419Z,85.87
2022-11-04T00:43:54.307Z,86.14
2022-11-04T00:46:17.834Z,85.16
2022-11-04T00:48:41.437Z,83.96
2022-11-04T00:51:05.111Z,84.35
2022-11-04T00:53:28.765Z,84.12
2022-11-04T00:55:53.726Z,84.87
2022-11-04T00:58:17.297Z,83.98
2022-11-04T01:00:40.846Z,84.70
2022-11-04T01:03:04.441Z,84.67
2022-11-04T01:05:28.391Z,85.56
2022-11-04T01:07:51.980Z,85.85
2022-11-04T01:10:15.611Z,86.65
2022-11-04T01:12:40.613Z,86.83
2022-11-04T01:15:04.249Z,89.66
2022-11-04T01:17:27.944Z,91.33
2022-11-04T01:19:51.450Z,89.98
2022-11-04T01:22:15.020Z,88.37
2022-11-04T01:24:38.580Z,88.69
2022-11-04T01:27:02.167Z,86.67
2022-11-04T01:29:27.356Z,86.91
2022-11-04T01:31:50.958Z,90.56
2022-11-04T01:34:14.491Z,87.82
2022-11-04T01:36:38.104Z,88.00
2022-11-04T01:39:01.606Z,87.47
2022-11-04T01:41:28.399Z,87.19
2022-11-04T01:43:54.389Z,86.17
2022-11-04T01:46:28.669Z,89.64
2022-11-04T01:48:54.036Z,88.22
2022-11-04T01:51:17.644Z,87.90
2022-11-04T01:53:44.870Z,89.39
2022-11-04T01:56:12.998Z,89.80
2022-11-04T01:58:36.971Z,88.26
2022-11-04T02:01:00.725Z,87.25
2022-11-04T02:03:30.510Z,87.80
2022-11-04T02:05:55.501Z,87.00
2022-11-04T02:08:19.875Z,87.79
2022-11-04T02:10:50.229Z,88.35
2022-11-04T02:13:12.990Z,88.63
2022-11-04T02:15:45.874Z,88.10
2022-11-04T02:18:33.699Z,87.91
2022-11-04T02:21:45.021Z,87.20
2022-11-04T02:24:49.758Z,88.15
2022-11-04T02:27:47.312Z,87.68
2022-11-04T02:30:15.142Z,87.94
2022-11-04T02:33:15.133Z,87.76
2022-11-04T02:35:45.925Z,87.68
2022-11-04T02:38:19.897Z,86.30
2022-11-04T02:40:51.524Z,85.23
2022-11-04T02:43:23.551Z,85.28
2022-11-04T02:45:50.647Z,85.49
2022-11-04T02:48:22.772Z,85.41
2022-11-04T02:50:52.100Z,86.12
2022-11-04T02:53:21.675Z,85.01
2022-11-04T02:55:48.564Z,84.48
2022-11-04T02:58:17.302Z,85.09
2022-11-04T03:00:43.366Z,84.99
2022-11-04T03:03:14.205Z,85.85
2022-11-04T03:05:41.250Z,84.31
2022-11-04T03:08:10.802Z,85.83
2022-11-04T03:10:39.841Z,84.89
2022-11-04T03:13:13.148Z,84.37
2022-11-04T03:15:39.143Z,86.90
2022-11-04T03:18:14.845Z,87.95
2022-11-04T03:20:40.073Z,86.88
2022-11-04T03:23:03.973Z,88.82
2022-11-04T03:25:33.505Z,87.93
2022-11-04T03:28:05.266Z,87.14
2022-11-04T03:30:39.931Z,88.57
2022-11-04T03:33:10.507Z,88.08
2022-11-04T03:35:35.225Z,89.69
2022-11-04T03:37:59.571Z,89.82
2022-11-04T03:40:23.987Z,91.27
2022-11-04T03:42:57.019Z,92.10
2022-11-04T03:45:20.975Z,91.74
2022-11-04T03:47:45.300Z,91.72
2022-11-04T03:50:17.826Z,91.21
2022-11-04T03:52:41.820Z,89.88
2022-11-04T03:55:06.477Z,91.76
2022-11-04T03:57:47.510Z,89.69
2022-11-04T04:00:14.597Z,89.83
2022-11-04T04:03:02.712Z,90.05
2022-11-04T04:05:31.332Z,90.00
2022-11-04T04:08:21.365Z,89.22
2022-11-04T04:10:54.352Z,89.23
2022-11-04T04:13:31.852Z,88.26
2022-11-04T04:16:01.577Z,87.87
2022-11-04T04:18:33.240Z,88.73
2022-11-04T04:21:03.252Z,89.03
2022-11-04T04:23:44.766Z,89.83
2022-11-04T04:26:28.765Z,88.99
2022-11-04T04:28:53.682Z,88.02
2022-11-04T04:31:39.346Z,88.71
2022-11-04T04:34:03.166Z,89.52
2022-11-04T04:36:29.269Z,88.91
2022-11-04T04:39:18.765Z,88.77
2022-11-04T04:42:02.066Z,90.31
2022-11-04T04:44:45.077Z,89.06
2022-11-04T04:47:10.688Z,88.65
2022-11-04T04:49:36.134Z,88.70
2022-11-04T04:52:02.171Z,88.62
2022-11-04T04:54:25.813Z,88.65
2022-11-04T04:56:49.377Z,90.04
2022-11-04T04:59:12.873Z,88.87
2022-11-04T05:01:36.504Z,88.99
2022-11-04T05:04:00.154Z,88.07
2022-11-04T05:06:23.933Z,87.68
2022-11-04T05:08:48.829Z,87.64
2022-11-04T05:11:12.709Z,88.67
2022-11-04T05:13:36.289Z,87.88
2022-11-04T05:16:05.945Z,87.32
2022-11-04T05:18:29.531Z,87.50
2022-11-04T05:20:53.102Z,86.65
2022-11-04T05:23:16.721Z,87.49
2022-11-04T05:25:43.021Z,87.70
2022-11-04T05:28:07.310Z,87.75
2022-11-04T05:30:31.136Z,87.41
2022-11-04T05:32:58.408Z,89.05
2022-11-04T05:35:25.307Z,88.78
2022-11-04T05:37:48.903Z,88.21
2022-11-04T05:40:13.683Z,88.25
2022-11-04T05:42:38.590Z,88.04
2022-11-04T05:45:02.142Z,89.49
2022-11-04T05:47:25.672Z,89.19
2022-11-04T05:49:49.237Z,89.38
2022-11-04T05:52:12.781Z,88.08
2022-11-04T05:54:38.518Z,89.20
2022-11-04T05:57:02.098Z,89.33
2022-11-04T05:59:27.021Z,88.93
2022-11-04T06:01:51.466Z,88.93
2022-11-04T06:04:18.778Z,88.17
2022-11-04T06:06:42.733Z,88.24
2022-11-04T06:09:06.399Z,87.85
2022-11-04T06:11:31.546Z,87.59
2022-11-04T06:13:57.102Z,88.03
2022-11-04T06:16:22.118Z,88.28
2022-11-04T06:18:45.657Z,88.76
2022-11-04T06:21:24.925Z,87.71
2022-11-04T06:23:48.584Z,86.84
2022-11-04T06:26:13.496Z,87.98
2022-11-04T06:28:37.158Z,86.56
2022-11-04T06:31:02.605Z,87.34
2022-11-04T06:33:30.445Z,88.53
2022-11-04T06:35:59.557Z,88.55
2022-11-04T06:38:23.134Z,90.53
2022-11-04T06:40:46.704Z,89.17
2022-11-04T06:43:10.554Z,89.00
2022-11-04T06:45:34.425Z,90.00
2022-11-04T06:47:57.989Z,89.17
2022-11-04T06:50:23.318Z,88.76
2022-11-04T06:52:46.879Z,88.38
2022-11-04T06:55:11.347Z,89.06
2022-11-04T06:57:34.934Z,88.92
2022-11-04T06:59:58.603Z,89.79
2022-11-04T07:02:22.267Z,89.03
2022-11-04T07:04:45.894Z,89.39
2022-11-04T07:07:11.124Z,89.17
2022-11-04T07:09:35.421Z,89.42
2022-11-04T07:11:58.929Z,89.51
2022-11-04T07:14:22.558Z,90.91
2022-11-04T07:16:46.151Z,89.25
2022-11-04T07:19:09.839Z,89.85
2022-11-04T07:21:33.681Z,90.81
2022-11-04T07:23:58.622Z,90.68
2022-11-04T07:26:22.161Z,90.27
2022-11-04T07:28:46.024Z,92.46
2022-11-04T07:31:12.938Z,92.09
2022-11-04T07:33:36.991Z,96.03
2022-11-04T07:36:05.041Z,96.71
2022-11-04T07:38:28.601Z,96.41
2022-11-04T07:40:53.577Z,96.40
2022-11-04T07:43:17.534Z,97.39
2022-11-04T07:45:42.402Z,96.88
2022-11-04T07:48:06.682Z,97.33
2022-11-04T07:50:30.611Z,97.59
2022-11-04T07:52:54.197Z,98.51
2022-11-04T07:55:18.644Z,98.14
2022-11-04T07:57:43.586Z,97.68
2022-11-04T08:00:08.605Z,98.98
2022-11-04T08:02:36.291Z,100.00
2022-11-04T08:04:59.942Z,99.95
2022-11-04T08:07:23.507Z,98.30
2022-11-04T08:09:47.072Z,97.81
2022-11-04T08:12:10.697Z,97.57
2022-11-04T08:14:35.663Z,97.01
2022-11-04T08:17:00.073Z,96.51
2022-11-04T08:19:23.618Z,96.27
2022-11-04T08:21:47.393Z,96.23
2022-11-04T08:24:10.917Z,97.20
2022-11-04T08:26:34.572Z,96.02
2022-11-04T08:28:59.394Z,95.03
2022-11-04T08:31:26.607Z,95.36
2022-11-04T08:33:50.347Z,94.29
2022-11-04T08:36:17.829Z,96.06
2022-11-04T08:38:41.517Z,95.01
2022-11-04T08:41:07.830Z,96.87
2022-11-04T08:43:31.676Z,95.46
2022-11-04T08:45:55.684Z,94.68
2022-11-04T08:48:20.686Z,94.76
2022-11-04T08:50:45.104Z,94.61
2022-11-04T08:53:08.873Z,95.20
2022-11-04T08:55:33.696Z,95.74
2022-11-04T08:57:57.399Z,95.20
2022-11-04T09:00:21.281Z,95.51
2022-11-04T09:02:44.872Z,96.71
2022-11-04T09:05:10.316Z,96.28
2022-11-04T09:07:35.437Z,95.61
2022-11-04T09:09:59.020Z,95.00
2022-11-04T09:12:22.703Z,95.17
2022-11-04T09:14:46.241Z,94.64
2022-11-04T09:17:09.773Z,94.46
2022-11-04T09:19:33.709Z,93.77
2022-11-04T09:21:58.673Z,93.72
2022-11-04T09:24:22.287Z,93.15
2022-11-04T09:26:45.897Z,92.93
2022-11-04T09:29:09.911Z,92.50
2022-11-04T09:31:33.597Z,92.08
2022-11-04T09:33:57.598Z,92.06
2022-11-04T09:36:21.192Z,91.93
2022-11-04T09:38:46.281Z,93.20
2022-11-04T09:41:52.720Z,91.43
2022-11-04T09:44:27.211Z,90.81
2022-11-04T09:46:54.279Z,92.06
2022-11-04T09:49:18.144Z,91.56
2022-11-04T09:51:54.152Z,91.26
2022-11-04T09:54:24.274Z,91.76
2022-11-04T09:56:51.356Z,91.79
2022-11-04T09:59:26.527Z,91.23
2022-11-04T10:02:03.796Z,91.56
2022-11-04T10:04:46.033Z,92.47
2022-11-04T10:07:26.989Z,91.61
2022-11-04T10:10:04.399Z,91.80
2022-11-04T10:12:48.693Z,91.50
2022-11-04T10:15:38.826Z,93.32
2022-11-04T10:18:19.466Z,93.59
2022-11-04T10:20:56.381Z,93.59
2022-11-04T10:23:24.214Z,92.97
2022-11-04T10:25:54.941Z,91.26
2022-11-04T10:28:21.479Z,91.62
2022-11-04T10:30:48.986Z,90.70
2022-11-04T10:33:21.414Z,90.86
2022-11-04T10:35:49.985Z,90.99
2022-11-04T10:38:20.856Z,92.35
2022-11-04T10:40:51.655Z,90.23
2022-11-04T10:43:22.702Z,89.87
2022-11-04T10:45:56.647Z,93.66
2022-11-04T10:48:28.905Z,90.90
2022-11-04T10:50:57.277Z,91.07
2022-11-04T10:53:24.827Z,90.14
2022-11-04T10:55:58.186Z,90.37
2022-11-04T10:58:26.094Z,92.43
2022-11-04T11:00:51.739Z,90.88
2022-11-04T11:03:34.972Z,89.66
2022-11-04T11:06:22.760Z,88.99
2022-11-04T11:08:47.687Z,89.66
2022-11-04T11:11:15.380Z,88.97
2022-11-04T11:13:42.470Z,90.73
2022-11-04T11:16:11.802Z,90.02
2022-11-04T11:18:37.225Z,90.30
2022-11-04T11:21:14.246Z,90.16
2022-11-04T11:23:44.314Z,89.33
2022-11-04T11:26:11.814Z,90.02
2022-11-04T11:28:38.925Z,89.66
2022-11-04T11:31:06.722Z,89.65
2022-11-04T11:33:31.904Z,88.88
2022-11-04T11:35:58.247Z,90.38
2022-11-04T11:38:25.690Z,89.80
2022-11-04T11:41:18.775Z,90.78
2022-11-04T11:43:41.274Z,88.69
2022-11-04T11:46:05.430Z,88.89
2022-11-04T11:48:36.566Z,88.43
2022-11-04T11:51:01.084Z,90.60
2022-11-04T11:53:25.538Z,89.89
2022-11-04T11:55:57.302Z,89.47
2022-11-04T12:01:25.571Z,87.67
2022-11-04T12:09:39.754Z,87.48
2022-11-04T12:12:19.385Z,88.27
2022-11-04T12:14:55.590Z,87.47
2022-11-04T12:17:36.886Z,87.56
2022-11-04T12:20:17.168Z,85.94
2022-11-04T12:22:50.633Z,85.75
2022-11-04T12:25:24.421Z,87.32
2022-11-04T12:27:57.837Z,87.46
2022-11-04T12:30:31.166Z,86.71
2022-11-04T12:33:18.917Z,86.69
2022-11-04T12:35:57.237Z,87.56
2022-11-04T12:38:44.307Z,86.48
2022-11-04T12:41:41.888Z,86.14
2022-11-04T12:44:10.662Z,86.21
2022-11-04T12:46:41.762Z,86.80
2022-11-04T12:49:35.434Z,85.72
2022-11-04T12:52:11.580Z,87.63
2022-11-04T12:54:59.876Z,87.53
2022-11-04T12:57:34.574Z,86.15
2022-11-04T13:00:11.363Z,86.90
2022-11-04T13:02:41.303Z,87.69
2022-11-04T13:05:19.980Z,87.04
2022-11-04T13:07:51.549Z,88.67
2022-11-04T13:10:22.865Z,87.70
2022-11-04T13:12:48.767Z,86.84
2022-11-04T13:15:19.838Z,85.77
2022-11-04T13:17:47.204Z,86.35
2022-11-04T13:20:34.531Z,85.44
2022-11-04T13:23:03.445Z,86.91
2022-11-04T13:25:34.874Z,88.59
2022-11-04T13:27:59.940Z,88.47
2022-11-04T13:30:32.647Z,86.70
2022-11-04T13:33:02.086Z,87.88
2022-11-04T13:35:38.304Z,87.98
2022-11-04T13:38:08.825Z,88.81
2022-11-04T13:40:43.664Z,89.72
2022-11-04T13:43:40.356Z,89.74
2022-11-04T13:46:05.296Z,90.01
2022-11-04T13:48:33.301Z,88.70
2022-11-04T13:51:02.378Z,87.70
2022-11-04T13:53:44.460Z,86.74
2022-11-04T13:56:31.537Z,88.74
2022-11-04T13:58:54.738Z,88.89
2022-11-04T14:01:31.129Z,90.67
2022-11-04T14:04:00.290Z,89.39
2022-11-04T14:06:53.273Z,88.46
2022-11-04T14:09:37.678Z,89.23
2022-11-04T14:12:35.633Z,88.80
2022-11-04T14:15:11.688Z,90.33
2022-11-04T14:18:05.880Z,88.40
2022-11-04T14:20:36.979Z,91.82
2022-11-04T14:23:03.467Z,91.37
2022-11-04T14:25:34.929Z,91.83
2022-11-04T14:28:01.761Z,91.39
2022-11-04T14:30:43.408Z,90.98
2022-11-04T14:33:22.972Z,89.95
2022-11-04T14:35:46.751Z,90.32
2022-11-04T14:38:27.369Z,91.08
2022-11-04T14:40:54.486Z,91.49
2022-11-04T14:43:33.670Z,90.72
2022-11-04T14:45:58.266Z,90.63
2022-11-04T14:48:22.445Z,89.28
2022-11-04T14:50:52.377Z,89.40
2022-11-04T14:53:25.162Z,88.79
2022-11-04T14:55:48.951Z,88.33
2022-11-04T14:58:25.540Z,87.05
2022-11-04T15:00:57.142Z,87.32
2022-11-04T15:04:09.415Z,87.11
2022-11-04T15:06:13.512Z,87.31
2022-11-04T15:08:44.845Z,86.88
2022-11-04T15:11:17.461Z,86.82
2022-11-04T15:13:47.622Z,87.10
2022-11-04T15:16:16.453Z,86.69
2022-11-04T15:18:41.394Z,87.24
2022-11-04T15:21:06.563Z,87.68
2022-11-04T15:23:33.252Z,87.01
2022-11-04T15:25:59.969Z,87.63
2022-11-04T15:28:26.767Z,88.12
2022-11-04T15:31:07.434Z,87.35
2022-11-04T15:33:32.445Z,88.13
2022-11-04T15:35:57.587Z,86.85
2022-11-04T15:38:21.501Z,87.84
2022-11-04T15:40:46.405Z,87.59
2022-11-04T15:43:12.090Z,88.41
2022-11-04T15:45:42.612Z,87.27
2022-11-04T15:48:26.605Z,87.37
2022-11-04T15:51:01.390Z,87.25
2022-11-04T15:53:25.143Z,88.17
2022-11-04T15:55:49.825Z,90.31
2022-11-04T15:58:17.191Z,89.50
2022-11-04T16:00:41.290Z,88.66
2022-11-04T16:03:05.421Z,89.25
2022-11-04T16:05:31.300Z,88.09
2022-11-04T16:07:59.511Z,87.84
2022-11-04T16:10:31.905Z,88.80
2022-11-04T16:12:58.625Z,88.67
2022-11-04T16:15:42.319Z,89.01
2022-11-04T16:18:08.103Z,89.83
2022-11-04T16:20:32.526Z,90.07
2022-11-04T16:23:00.206Z,89.24
2022-11-04T16:25:25.597Z,88.45
2022-11-04T16:27:49.426Z,90.07
2022-11-04T16:30:20.901Z,88.88
2022-11-04T16:32:49.064Z,88.05
2022-11-04T16:35:23.917Z,88.00
2022-11-04T16:37:47.710Z,88.74
2022-11-04T16:40:11.942Z,89.18
2022-11-04T16:42:35.518Z,89.11
2022-11-04T16:45:03.320Z,89.29
2022-11-04T16:47:28.590Z,89.41
2022-11-04T16:49:53.505Z,89.94
2022-11-04T16:52:25.556Z,89.82
2022-11-04T16:54:49.457Z,89.02
2022-11-04T16:57:15.656Z,90.57
2022-11-04T16:59:40.093Z,88.82
2022-11-04T17:02:22.417Z,89.02
2022-11-04T17:04:46.350Z,88.89
2022-11-04T17:07:11.269Z,89.76
2022-11-04T17:09:34.897Z,90.66
2022-11-04T17:11:58.489Z,90.43
2022-11-04T17:14:22.438Z,88.75
2022-11-04T17:16:46.109Z,88.18
2022-11-04T17:19:16.245Z,88.69
2022-11-04T17:21:40.640Z,89.66
2022-11-04T17:24:06.489Z,88.59
2022-11-04T17:26:30.042Z,89.59
2022-11-04T17:28:53.591Z,88.42
2022-11-04T17:31:20.999Z,89.47
2022-11-04T17:33:44.622Z,88.08
2022-11-04T17:36:10.605Z,88.16
2022-11-04T17:38:34.169Z,88.63
2022-11-04T17:41:16.586Z,88.48
2022-11-04T17:43:57.477Z,87.96
2022-11-04T17:46:37.916Z,89.74
2022-11-04T17:49:02.115Z,89.83
2022-11-04T17:51:26.022Z,90.26
2022-11-04T17:53:50.062Z,89.93
2022-11-04T17:56:17.753Z,89.79
2022-11-04T17:58:41.326Z,88.79
2022-11-04T18:01:08.817Z,89.08
2022-11-04T18:03:32.551Z,88.25
2022-11-04T18:05:59.978Z,89.01
2022-11-04T18:08:23.616Z,88.88
2022-11-04T18:10:47.167Z,90.50
2022-11-04T18:13:12.519Z,89.28
2022-11-04T18:15:36.298Z,88.61
2022-11-04T18:17:59.935Z,88.83
2022-11-04T18:20:23.510Z,88.87
2022-11-04T18:22:47.422Z,90.32
2022-11-04T18:25:12.318Z,88.71
2022-11-04T18:27:36.176Z,89.15
2022-11-04T18:30:01.122Z,88.82
2022-11-04T18:32:24.857Z,89.07
2022-11-04T18:34:50.143Z,89.13
2022-11-04T18:37:13.766Z,90.07
2022-11-04T18:39:38.477Z,91.03
2022-11-04T18:42:02.215Z,90.46
2022-11-04T18:44:25.989Z,90.76
2022-11-04T18:46:53.019Z,91.18
2022-11-04T18:49:17.880Z,91.57
2022-11-04T18:51:41.729Z,90.67
2022-11-04T18:54:07.208Z,90.36
2022-11-04T18:56:30.859Z,90.47
2022-11-04T18:58:54.371Z,89.83
2022-11-04T19:01:22.421Z,89.81
2022-11-04T19:03:48.026Z,89.74
2022-11-04T19:06:17.335Z,89.85
2022-11-04T19:08:46.482Z,90.73
2022-11-04T19:11:17.751Z,90.53
2022-11-04T19:13:41.553Z,90.65
2022-11-04T19:16:07.309Z,89.48
2022-11-04T19:18:30.878Z,90.74
2022-11-04T19:20:56.701Z,90.29
2022-11-04T19:23:20.554Z,91.23
2022-11-04T19:25:44.469Z,90.26
2022-11-04T19:28:32.603Z,89.80
2022-11-04T19:30:59.922Z,89.28
2022-11-04T19:33:23.545Z,90.14
2022-11-04T19:35:47.098Z,89.95
2022-11-04T19:38:12.409Z,91.02
2022-11-04T19:40:36.157Z,89.84
2022-11-04T19:43:10.657Z,89.99
2022-11-04T19:45:34.368Z,89.77
2022-11-04T19:47:58.118Z,90.44
2022-11-04T19:50:22.393Z,89.41
2022-11-04T19:52:45.952Z,90.36
2022-11-04T19:55:11.468Z,88.71
2022-11-04T19:57:35.349Z,88.96
2022-11-04T19:59:58.963Z,88.74
2022-11-04T20:02:23.201Z,89.10
2022-11-04T20:04:47.850Z,89.39
2022-11-04T20:07:11.404Z,89.75
2022-11-04T20:09:34.971Z,89.56
2022-11-04T20:12:17.373Z,89.64
2022-11-04T20:14:40.958Z,90.08
2022-11-04T20:17:06.384Z,89.59
2022-11-04T20:19:30.006Z,89.99
2022-11-04T20:21:54.133Z,90.16
2022-11-04T20:24:17.759Z,90.99
2022-11-04T20:26:44.510Z,90.05
2022-11-04T20:29:09.727Z,89.83
2022-11-04T20:31:37.090Z,91.10
2022-11-04T20:34:02.487Z,90.84
2022-11-04T20:36:29.052Z,91.18
2022-11-04T20:38:57.713Z,90.82
2022-11-04T20:41:21.258Z,90.29
2022-11-04T20:43:44.925Z,91.48
2022-11-04T20:46:14.077Z,92.04
2022-11-04T20:48:38.024Z,92.73
2022-11-04T20:51:08.080Z,91.00
2022-11-04T20:53:31.742Z,91.87
2022-11-04T20:55:55.274Z,91.57
2022-11-04T20:58:18.915Z,90.97
2022-11-04T21:00:42.551Z,91.92
2022-11-04T21:03:07.523Z,91.62
2022-11-04T21:05:31.246Z,91.44
2022-11-04T21:07:54.795Z,93.23
2022-11-04T21:10:23.899Z,91.73
2022-11-04T21:12:48.505Z,90.94
2022-11-04T21:15:35.587Z,91.44
2022-11-04T21:17:59.158Z,91.74
2022-11-04T21:20:24.070Z,93.73
2022-11-04T21:22:47.844Z,93.43
2022-11-04T21:25:11.448Z,92.80
2022-11-04T21:27:35.101Z,92.17
2022-11-04T21:29:58.639Z,91.85
2022-11-04T21:32:22.322Z,92.34
2022-11-04T21:34:45.835Z,92.28
2022-11-04T21:37:10.784Z,92.61
2022-11-04T21:39:34.334Z,92.06
2022-11-04T21:41:57.909Z,91.30
2022-11-04T21:44:21.484Z,90.55
2022-11-04T21:46:45.173Z,91.52
2022-11-04T21:49:08.753Z,92.22
2022-11-04T21:51:34.474Z,91.39
2022-11-04T21:54:00.395Z,91.86
2022-11-04T21:56:27.012Z,92.35
2022-11-04T21:58:50.685Z,93.06
2022-11-04T22:01:17.860Z,93.47
2022-11-04T22:03:41.739Z,92.87
2022-11-04T22:06:07.842Z,92.27
2022-11-04T22:08:32.045Z,91.99
2022-11-04T22:10:57.651Z,91.90
2022-11-04T22:13:23.289Z,92.20
2022-11-04T22:16:01.781Z,91.54
2022-11-04T22:18:25.435Z,92.23
2022-11-04T22:20:48.958Z,92.52
2022-11-04T22:23:12.883Z,93.21
2022-11-04T22:25:36.661Z,92.40
2022-11-04T22:28:01.602Z,91.88
2022-11-04T22:30:25.496Z,91.91
2022-11-04T22:32:49.108Z,90.84
2022-11-04T22:35:12.608Z,91.74
2022-11-04T22:37:36.216Z,92.54
2022-11-04T22:39:59.882Z,91.50
2022-11-04T22:42:23.463Z,90.42
2022-11-04T22:44:48.346Z,91.67
2022-11-04T22:47:11.978Z,92.11
2022-11-04T22:49:36.353Z,92.05
2022-11-04T22:51:59.944Z,91.97
2022-11-04T22:54:23.494Z,91.83
2022-11-04T22:56:47.089Z,91.15
2022-11-04T22:59:12.209Z,91.63
2022-11-04T23:01:37.245Z,92.43
2022-11-04T23:04:01.101Z,92.74
2022-11-04T23:06:26.433Z,93.60
2022-11-04T23:08:51.351Z,92.56
2022-11-04T23:11:37.481Z,92.69
2022-11-04T23:14:20.811Z,92.48
2022-11-04T23:17:05.431Z,92.91
2022-11-04T23:19:30.963Z,94.79
2022-11-04T23:22:11.976Z,94.53
2022-11-04T23:24:52.742Z,94.87
2022-11-04T23:27:36.488Z,94.17
2022-11-04T23:30:18.865Z,95.08
2022-11-04T23:32:44.248Z,96.06
2022-11-04T23:35:28.377Z,95.57
2022-11-04T23:37:59.529Z,95.10
2022-11-04T23:40:23.080Z,95.69
2022-11-04T23:42:46.577Z,96.18
2022-11-04T23:45:29.017Z,96.74
2022-11-04T23:48:14.653Z,96.54
2022-11-04T23:50:55.776Z,96.19
2022-11-04T23:53:38.917Z,96.86
2022-11-04T23:56:20.411Z,98.09
2022-11-04T23:59:01.757Z,98.62
